Time;durP1;ratioP1;P1;durP2;ratioP2;P2;SDS_P1;SDS_P2;PMS_P1;PMS_P2;Temp;Humidity;BMP_temperature;BMP_pressure;BME280_temperature;BME280_humidity;BME280_pressure;Samples;Min_cycle;Max_cycle;Signal;HPM_P1;HPM_P2
2023/07/31 00:00:15;;;;;;;4.40;2.30;;;;;;;19.15;100.00;100418.51;110004;1240;63367;-70
2023/07/31 00:03:04;;;;;;;3.60;2.60;;;;;;;19.19;100.00;100421.23;110018;1240;57713;-70
2023/07/31 00:05:33;;;;;;;3.40;2.30;;;;;;;19.21;100.00;100424.87;110006;1240;62147;-69
2023/07/31 00:08:02;;;;;;;3.50;2.20;;;;;;;19.23;100.00;100427.91;109852;1241;72080;-68
2023/07/31 00:10:30;;;;;;;4.30;2.50;;;;;;;19.29;100.00;100435.26;109885;1240;70619;-70
2023/07/31 00:12:59;;;;;;;3.90;2.60;;;;;;;19.29;100.00;100434.26;109972;1241;62729;-70
2023/07/31 00:15:28;;;;;;;3.70;2.50;;;;;;;19.30;100.00;100432.36;109725;1240;62011;-70
2023/07/31 00:17:57;;;;;;;4.20;2.50;;;;;;;19.34;100.00;100434.56;109983;1240;57116;-71
2023/07/31 00:20:25;;;;;;;4.30;2.70;;;;;;;19.37;100.00;100427.48;109999;1240;72860;-70
2023/07/31 00:22:54;;;;;;;3.50;2.40;;;;;;;19.43;100.00;100427.06;109984;1239;62259;-71
2023/07/31 00:25:23;;;;;;;3.80;2.50;;;;;;;19.45;100.00;100427.14;109970;1240;59185;-68
2023/07/31 00:27:52;;;;;;;3.30;2.30;;;;;;;19.43;100.00;100424.55;109954;1241;72454;-70
2023/07/31 00:30:22;;;;;;;4.90;2.60;;;;;;;19.38;100.00;100418.08;109966;1241;63673;-69
2023/07/31 00:32:51;;;;;;;3.40;2.50;;;;;;;19.31;100.00;100414.55;109870;1241;61526;-70
2023/07/31 00:35:19;;;;;;;3.70;2.70;;;;;;;19.29;100.00;100410.79;110020;1239;73764;-70
2023/07/31 00:37:48;;;;;;;4.70;2.70;;;;;;;19.25;100.00;100401.70;109955;1239;61898;-70
2023/07/31 00:40:17;;;;;;;3.50;2.60;;;;;;;19.22;100.00;100396.20;109825;1239;59785;-70
2023/07/31 00:42:45;;;;;;;3.80;2.40;;;;;;;19.24;100.00;100398.81;109789;1239;74467;-70
2023/07/31 00:45:15;;;;;;;7.10;2.50;;;;;;;19.19;100.00;100396.91;109914;1239;62242;-70
2023/07/31 00:47:44;;;;;;;3.50;2.30;;;;;;;19.13;100.00;100397.54;109843;1240;57184;-69
2023/07/31 00:50:14;;;;;;;4.90;2.60;;;;;;;19.13;100.00;100396.91;109713;1239;61986;-69
2023/07/31 00:52:43;;;;;;;4.90;2.50;;;;;;;19.09;100.00;100400.88;109736;1241;60641;-69
2023/07/31 00:55:12;;;;;;;3.40;2.20;;;;;;;19.05;100.00;100404.14;109827;1239;69583;-69
2023/07/31 00:57:42;;;;;;;3.00;2.20;;;;;;;19.05;100.00;100409.64;109791;1240;63874;-70
2023/07/31 01:00:12;;;;;;;3.30;2.40;;;;;;;19.09;100.00;100402.81;109777;1242;57483;-70
2023/07/31 01:02:41;;;;;;;5.20;3.10;;;;;;;19.17;100.00;100406.98;109680;1239;57645;-70
2023/07/31 01:05:10;;;;;;;3.70;2.60;;;;;;;19.27;100.00;100406.77;109750;1241;62944;-71
2023/07/31 01:08:31;;;;;;;4.40;2.40;;;;;;;19.28;100.00;100407.88;109933;1241;71952;-71
2023/07/31 01:11:24;;;;;;;3.00;2.20;;;;;;;19.24;100.00;100399.18;109289;1240;70042;-70
2023/07/31 01:13:56;;;;;;;3.30;2.40;;;;;;;19.21;100.00;100392.64;109846;1240;64977;-70
2023/07/31 01:16:26;;;;;;;4.00;2.80;;;;;;;19.17;100.00;100388.33;109835;1242;61888;-69
2023/07/31 01:18:55;;;;;;;3.60;2.50;;;;;;;19.14;100.00;100387.48;109672;1241;57209;-70
2023/07/31 01:21:46;;;;;;;4.70;2.70;;;;;;;19.10;100.00;100388.73;109868;1242;62757;-69
2023/07/31 01:24:46;;;;;;;3.70;2.80;;;;;;;19.06;100.00;100394.27;109951;1241;72147;-69
2023/07/31 01:27:21;;;;;;;3.40;2.60;;;;;;;19.03;100.00;100398.85;109835;1240;69406;-69
2023/07/31 01:30:16;;;;;;;4.70;3.20;;;;;;;19.01;100.00;100398.46;109784;1240;63378;-69
2023/07/31 01:32:48;;;;;;;3.90;2.40;;;;;;;19.03;100.00;100404.14;109742;1244;58287;-69
2023/07/31 01:35:17;;;;;;;3.90;2.80;;;;;;;19.08;100.00;100401.14;109667;1245;58226;-69
2023/07/31 01:37:46;;;;;;;3.70;3.00;;;;;;;19.22;100.00;100399.14;109957;1240;63543;-69
2023/07/31 01:40:15;;;;;;;4.30;2.70;;;;;;;19.23;100.00;100392.15;109949;1240;61415;-69
2023/07/31 01:42:44;;;;;;;3.80;2.70;;;;;;;19.26;100.00;100391.55;109823;1240;70392;-69
2023/07/31 01:45:12;;;;;;;4.90;2.70;;;;;;;19.27;100.00;100391.61;109784;1241;73956;-69
2023/07/31 01:47:41;;;;;;;12.60;3.60;;;;;;;19.23;100.00;100396.59;109768;1242;58327;-69
2023/07/31 01:50:10;;;;;;;3.70;2.70;;;;;;;19.21;100.00;100397.56;109708;1241;59848;-70
2023/07/31 01:52:39;;;;;;;4.10;3.20;;;;;;;19.22;100.00;100400.73;109814;1241;74115;-70
2023/07/31 01:55:09;;;;;;;3.80;2.80;;;;;;;19.26;100.00;100402.39;109964;1241;60977;-69
2023/07/31 01:57:38;;;;;;;3.90;2.60;;;;;;;19.32;100.00;100400.00;109823;1242;59836;-69
2023/07/31 02:00:07;;;;;;;4.70;3.10;;;;;;;19.30;100.00;100406.73;109782;1241;73433;-70
2023/07/31 02:02:45;;;;;;;4.60;2.90;;;;;;;19.18;100.00;100408.14;109939;1241;63051;-70
2023/07/31 02:05:14;;;;;;;4.50;2.90;;;;;;;19.09;100.00;100407.43;109780;1241;61422;-70
2023/07/31 02:07:43;;;;;;;4.60;2.70;;;;;;;18.98;100.00;100406.20;109974;1242;63434;-70
2023/07/31 02:10:12;;;;;;;5.60;3.50;;;;;;;18.97;100.00;100408.34;109941;1241;72521;-70
2023/07/31 02:12:40;;;;;;;4.90;3.40;;;;;;;18.99;100.00;100410.48;109826;1240;70685;-69
2023/07/31 02:15:09;;;;;;;5.80;3.30;;;;;;;19.00;100.00;100412.83;109909;1241;62865;-70
2023/07/31 02:17:38;;;;;;;6.20;3.00;;;;;;;19.02;100.00;100409.86;109778;1242;58293;-70
2023/07/31 02:20:08;;;;;;;4.20;3.00;;;;;;;19.03;100.00;100414.90;109891;1241;60108;-70
2023/07/31 02:22:37;;;;;;;3.20;2.80;;;;;;;19.05;100.00;100414.36;109791;1242;64298;-70
2023/07/31 02:25:06;;;;;;;4.70;2.80;;;;;;;19.04;100.00;100414.98;109910;1241;71200;-70
2023/07/31 02:27:35;;;;;;;5.10;3.10;;;;;;;19.03;100.00;100411.43;109936;1239;71338;-70
2023/07/31 02:30:04;;;;;;;3.70;2.90;;;;;;;19.04;100.00;100412.64;109908;1241;73966;-70
2023/07/31 02:32:33;;;;;;;4.20;3.10;;;;;;;19.04;100.00;100410.42;109655;1241;62759;-70
2023/07/31 02:35:01;;;;;;;3.90;3.00;;;;;;;19.02;100.00;100411.94;109626;1241;60076;-70
2023/07/31 02:37:30;;;;;;;3.90;2.80;;;;;;;19.01;100.00;100410.95;109656;1242;64132;-70
2023/07/31 02:39:59;;;;;;;4.10;2.90;;;;;;;19.03;100.00;100408.77;109769;1241;61428;-71
2023/07/31 02:42:29;;;;;;;4.30;3.10;;;;;;;19.05;100.00;100414.92;109769;1241;68915;-70
2023/07/31 02:44:57;;;;;;;5.40;3.50;;;;;;;19.04;100.00;100423.83;109575;1242;74959;-70
2023/07/31 02:47:27;;;;;;;5.10;3.30;;;;;;;19.05;100.00;100432.69;109741;1241;62740;-71
2023/07/31 02:49:56;;;;;;;5.90;3.40;;;;;;;19.09;100.00;100435.13;109796;1239;58091;-71
2023/07/31 02:52:25;;;;;;;4.30;3.30;;;;;;;19.12;100.00;100433.40;109768;1241;73907;-71
2023/07/31 02:54:54;;;;;;;3.60;3.00;;;;;;;19.14;100.00;100432.45;109772;1239;63895;-71
2023/07/31 02:57:22;;;;;;;4.80;3.60;;;;;;;19.17;100.00;100430.15;109749;1241;61940;-71
2023/07/31 02:59:51;;;;;;;4.50;3.00;;;;;;;19.17;100.00;100429.92;109772;1240;62581;-69
2023/07/31 03:02:20;;;;;;;4.50;3.20;;;;;;;19.18;100.00;100427.08;109875;1239;58311;-70
2023/07/31 03:04:50;;;;;;;7.00;4.10;;;;;;;19.19;100.00;100426.02;109768;1241;60100;-70
2023/07/31 03:07:18;;;;;;;4.40;3.20;;;;;;;19.23;100.00;100426.11;109811;1240;74084;-71
2023/07/31 03:09:47;;;;;;;4.10;3.10;;;;;;;19.25;100.00;100424.09;109847;1242;61802;-70
2023/07/31 03:12:16;;;;;;;3.50;2.80;;;;;;;19.26;100.00;100421.98;109945;1241;59032;-70
2023/07/31 03:14:45;;;;;;;4.70;3.10;;;;;;;19.28;100.00;100425.09;109889;1240;73779;-70
2023/07/31 03:17:13;;;;;;;7.20;3.10;;;;;;;19.31;100.00;100425.84;109695;1245;58305;-70
2023/07/31 03:19:42;;;;;;;4.10;2.70;;;;;;;19.28;100.00;100425.68;109750;1241;58605;-70
2023/07/31 03:22:10;;;;;;;4.50;2.60;;;;;;;19.32;100.00;100421.89;109921;1241;73760;-70
2023/07/31 03:24:39;;;;;;;5.80;2.80;;;;;;;19.35;100.00;100424.36;109906;1241;60992;-70
2023/07/31 03:27:08;;;;;;;3.60;2.50;;;;;;;19.41;100.00;100424.10;109786;1242;59760;-70
2023/07/31 03:29:37;;;;;;;4.50;2.90;;;;;;;19.43;100.00;100422.09;109953;1241;71981;-70
2023/07/31 03:32:06;;;;;;;5.30;3.00;;;;;;;19.45;100.00;100425.38;109814;1242;60968;-71
2023/07/31 03:34:35;;;;;;;3.30;2.50;;;;;;;19.45;100.00;100424.37;109816;1242;58300;-71
2023/07/31 03:37:06;;;;;;;5.50;3.00;;;;;;;19.45;100.00;100426.48;109900;1240;73466;-70
2023/07/31 03:39:35;;;;;;;4.50;3.50;;;;;;;19.50;100.00;100424.42;109762;1244;72415;-71
2023/07/31 03:42:04;;;;;;;6.00;3.10;;;;;;;19.53;100.00;100426.36;110060;1239;70118;-72
2023/07/31 03:44:33;;;;;;;6.60;3.00;;;;;;;19.56;100.00;100426.19;110040;1242;62603;-73
2023/07/31 03:47:02;;;;;;;5.30;3.20;;;;;;;19.54;100.00;100427.86;109930;1241;62730;-72
2023/07/31 03:49:31;;;;;;;3.80;2.90;;;;;;;19.56;100.00;100427.14;109908;1241;60875;-72
2023/07/31 03:51:59;;;;;;;5.10;4.10;;;;;;;19.53;100.00;100433.23;109742;1240;74983;-72
2023/07/31 03:54:28;;;;;;;11.60;8.20;;;;;;;19.50;100.00;100434.10;109916;1242;62075;-71
2023/07/31 03:56:57;;;;;;;7.00;3.20;;;;;;;19.55;100.00;100437.98;109798;1242;59803;-72
2023/07/31 03:59:25;;;;;;;3.60;2.50;;;;;;;19.61;100.00;100441.77;109894;1241;74082;-72
2023/07/31 04:01:54;;;;;;;5.30;2.90;;;;;;;19.60;100.00;100442.41;109858;1242;57840;-72
2023/07/31 04:04:23;;;;;;;6.40;2.90;;;;;;;19.64;100.00;100442.23;109914;1241;58317;-71
2023/07/31 04:06:52;;;;;;;3.60;2.70;;;;;;;19.55;100.00;100441.82;109930;1240;74125;-73
2023/07/31 04:09:20;;;;;;;4.00;2.00;;;;;;;19.59;100.00;100439.10;109774;1242;71962;-69
2023/07/31 04:11:49;;;;;;;3.70;2.20;;;;;;;19.61;100.00;100441.94;109947;1242;60547;-74
2023/07/31 04:14:18;;;;;;;4.70;1.80;;;;;;;19.59;100.00;100441.79;109791;1242;62351;-74
2023/07/31 04:16:47;;;;;;;2.80;1.60;;;;;;;19.60;100.00;100444.30;109583;1244;63231;-75
2023/07/31 04:19:16;;;;;;;3.70;2.10;;;;;;;19.61;100.00;100449.73;109909;1241;59620;-75
2023/07/31 04:21:45;;;;;;;4.10;2.40;;;;;;;19.58;100.00;100450.39;109719;1244;64156;-76
2023/07/31 04:24:14;;;;;;;3.50;2.50;;;;;;;19.55;100.00;100455.27;109756;1241;70095;-75
2023/07/31 04:26:43;;;;;;;3.30;2.30;;;;;;;19.51;100.00;100458.97;109929;1240;60344;-76
2023/07/31 04:29:11;;;;;;;6.50;3.00;;;;;;;19.43;100.00;100457.09;109750;1241;73648;-75
2023/07/31 04:31:40;;;;;;;3.20;2.40;;;;;;;19.31;100.00;100455.92;109911;1241;63037;-74
2023/07/31 04:34:09;;;;;;;3.40;2.60;;;;;;;19.14;100.00;100458.14;109713;1242;57715;-70
2023/07/31 04:36:38;;;;;;;8.20;3.20;;;;;;;18.91;100.00;100462.06;109622;1241;63586;-70
2023/07/31 04:39:07;;;;;;;5.50;2.80;;;;;;;18.63;100.00;100464.55;109778;1242;72148;-68
2023/07/31 04:41:36;;;;;;;6.80;3.00;;;;;;;18.45;100.00;100464.98;109930;1240;60561;-69
2023/07/31 04:44:05;;;;;;;5.30;3.10;;;;;;;18.25;100.00;100467.85;109895;1242;72035;-69
2023/07/31 04:46:33;;;;;;;4.80;3.50;;;;;;;18.14;100.00;100472.92;109924;1241;63149;-69
2023/07/31 04:49:02;;;;;;;5.70;3.60;;;;;;;18.09;100.00;100475.36;109837;1241;58274;-69
2023/07/31 04:51:31;;;;;;;5.90;3.50;;;;;;;18.05;100.00;100473.58;110006;1241;63226;-68
2023/07/31 04:54:00;;;;;;;6.40;3.80;;;;;;;18.02;100.00;100471.88;110012;1239;61512;-69
2023/07/31 04:56:29;;;;;;;5.40;3.50;;;;;;;17.99;100.00;100473.45;109991;1239;68515;-68
2023/07/31 04:58:57;;;;;;;6.50;3.30;;;;;;;17.95;100.00;100477.58;109746;1241;74925;-68
2023/07/31 05:01:26;;;;;;;5.10;3.40;;;;;;;17.93;100.00;100479.61;109787;1242;57815;-66
2023/07/31 05:03:55;;;;;;;6.10;3.00;;;;;;;17.95;100.00;100476.02;109821;1241;61080;-67
2023/07/31 05:06:24;;;;;;;4.40;3.40;;;;;;;17.94;100.00;100473.30;109756;1240;63475;-69
2023/07/31 05:08:53;;;;;;;5.80;4.40;;;;;;;17.98;100.00;100477.05;109693;1241;70533;-68
2023/07/31 05:11:21;;;;;;;7.30;3.60;;;;;;;18.02;100.00;100485.33;109809;1241;70430;-67
2023/07/31 05:13:50;;;;;;;7.00;3.40;;;;;;;18.00;100.00;100488.51;109720;1240;62609;-68
2023/07/31 05:16:19;;;;;;;5.50;4.10;;;;;;;18.01;100.00;100491.88;109770;1242;57787;-67
2023/07/31 05:18:48;;;;;;;8.90;3.70;;;;;;;18.05;100.00;100493.50;109770;1241;59233;-68
2023/07/31 05:21:17;;;;;;;11.20;4.30;;;;;;;18.06;100.00;100497.37;109483;1242;74879;-70
2023/07/31 05:23:46;;;;;;;6.30;4.40;;;;;;;18.16;100.00;100500.71;109604;1241;71408;-69
2023/07/31 05:26:14;;;;;;;8.30;5.50;;;;;;;18.23;100.00;100503.25;109552;1242;61517;-69
2023/07/31 05:28:46;;;;;;;7.10;4.60;;;;;;;18.23;100.00;100505.60;109649;1241;62224;-68
2023/07/31 05:31:15;;;;;;;9.70;4.30;;;;;;;18.16;100.00;100506.48;109550;1242;61861;-69
2023/07/31 05:33:43;;;;;;;6.00;4.00;;;;;;;18.04;100.00;100505.36;109574;1241;61624;-70
2023/07/31 05:36:12;;;;;;;9.20;4.60;;;;;;;18.05;100.00;100504.93;109564;1240;64544;-70
2023/07/31 05:38:43;;;;;;;13.40;4.70;;;;;;;18.03;100.00;100504.92;109537;1240;72100;-71
2023/07/31 05:41:13;;;;;;;7.10;4.30;;;;;;;18.13;100.00;100505.99;109610;1239;70557;-70
2023/07/31 05:43:42;;;;;;;7.10;5.30;;;;;;;18.22;100.00;100510.50;109596;1241;73508;-69
2023/07/31 05:46:11;;;;;;;7.60;4.30;;;;;;;18.21;100.00;100510.91;109739;1241;58321;-69
2023/07/31 05:48:41;;;;;;;11.20;5.50;;;;;;;18.24;100.00;100510.06;109709;1240;60984;-69
2023/07/31 05:51:10;;;;;;;18.40;12.70;;;;;;;18.24;100.00;100514.16;109798;1241;74725;-73
2023/07/31 05:53:40;;;;;;;19.30;15.70;;;;;;;18.26;100.00;100517.56;109695;1239;62492;-69
2023/07/31 05:56:09;;;;;;;14.90;11.80;;;;;;;18.34;100.00;100518.89;109714;1239;59743;-70
2023/07/31 05:58:38;;;;;;;11.80;9.90;;;;;;;18.40;100.00;100520.84;109774;1242;72787;-70
2023/07/31 06:01:06;;;;;;;7.40;6.20;;;;;;;18.36;100.00;100522.13;109810;1241;63163;-69
2023/07/31 06:03:35;;;;;;;7.50;5.40;;;;;;;18.31;100.00;100521.65;109768;1240;57852;-68
2023/07/31 06:06:05;;;;;;;6.20;4.70;;;;;;;18.32;100.00;100524.86;109794;1241;63637;-68
2023/07/31 06:08:34;;;;;;;6.30;4.60;;;;;;;18.41;100.00;100525.86;109907;1242;71824;-68
2023/07/31 06:11:03;;;;;;;6.10;4.00;;;;;;;18.45;100.00;100528.63;109909;1241;70063;-69
2023/07/31 06:13:31;;;;;;;5.40;3.40;;;;;;;18.55;100.00;100524.48;109876;1241;64126;-69
2023/07/31 06:16:02;;;;;;;5.80;3.30;;;;;;;18.59;100.00;100528.98;109723;1241;58380;-68
2023/07/31 06:18:32;;;;;;;5.70;3.40;;;;;;;18.48;100.00;100536.39;109841;1240;57712;-67
2023/07/31 06:21:01;;;;;;;7.00;3.60;;;;;;;18.43;100.00;100535.51;109774;1241;64296;-69
2023/07/31 06:23:30;;;;;;;5.90;3.30;;;;;;;18.46;100.00;100537.31;109592;1241;61465;-68
2023/07/31 06:25:59;;;;;;;5.20;3.20;;;;;;;18.47;100.00;100538.55;109677;1241;70093;-70
2023/07/31 06:28:32;;;;;;;5.30;3.30;;;;;;;18.50;100.00;100541.85;109518;1241;74334;-69
2023/07/31 06:31:01;;;;;;;5.50;3.90;;;;;;;18.47;100.00;100543.01;109570;1244;57845;-70
2023/07/31 06:33:30;;;;;;;5.90;3.50;;;;;;;18.48;100.00;100541.35;109787;1241;58330;-69
2023/07/31 06:35:59;;;;;;;6.60;4.50;;;;;;;18.42;100.00;100540.36;109804;1241;73509;-71
2023/07/31 06:38:27;;;;;;;6.00;3.60;;;;;;;18.36;100.00;100538.45;109693;1241;72508;-70
2023/07/31 06:40:56;;;;;;;6.10;4.30;;;;;;;18.43;100.00;100536.38;109711;1241;70760;-69
2023/07/31 06:43:25;;;;;;;5.20;3.70;;;;;;;18.48;100.00;100536.23;109844;1240;62777;-70
2023/07/31 06:45:56;;;;;;;5.90;4.00;;;;;;;18.49;100.00;100543.54;109828;1240;61775;-69
2023/07/31 06:48:25;;;;;;;7.60;4.20;;;;;;;18.55;100.00;100543.20;109792;1239;57765;-69
2023/07/31 06:50:54;;;;;;;5.80;3.70;;;;;;;18.65;100.00;100541.02;109909;1242;63544;-69
2023/07/31 06:53:23;;;;;;;7.90;4.10;;;;;;;18.75;100.00;100540.46;109896;1241;61454;-69
2023/07/31 06:55:52;;;;;;;4.40;3.50;;;;;;;18.78;100.00;100538.77;109835;1241;68717;-68
2023/07/31 06:58:20;;;;;;;4.90;3.10;;;;;;;18.77;100.00;100537.13;109723;1241;62949;-69
2023/07/31 07:00:49;;;;;;;5.10;3.40;;;;;;;18.78;100.00;100535.38;109825;1241;58258;-69
2023/07/31 07:03:19;;;;;;;3.30;2.50;;;;;;;18.83;100.00;100536.84;109900;1240;58298;-69
2023/07/31 07:05:47;;;;;;;3.70;2.70;;;;;;;18.82;100.00;100538.66;109840;1240;73992;-70
2023/07/31 07:08:17;;;;;;;3.90;2.50;;;;;;;18.80;100.00;100538.21;109878;1241;63434;-69
2023/07/31 07:10:47;;;;;;;2.70;2.00;;;;;;;18.76;100.00;100537.75;109875;1241;69381;-70
2023/07/31 07:13:16;;;;;;;4.20;2.50;;;;;;;18.71;100.00;100537.27;109730;1241;73782;-72
2023/07/31 07:15:49;;;;;;;3.30;2.10;;;;;;;18.65;100.00;100536.81;109762;1242;63517;-69
2023/07/31 07:18:18;;;;;;;2.40;1.90;;;;;;;18.57;100.00;100537.72;109737;1241;60162;-71
2023/07/31 07:20:51;;;;;;;2.40;1.80;;;;;;;18.48;100.00;100541.48;109753;1241;73749;-69
2023/07/31 07:23:21;;;;;;;2.50;1.80;;;;;;;18.43;100.00;100540.70;109749;1240;71756;-69
2023/07/31 07:25:51;;;;;;;5.50;2.40;;;;;;;18.39;100.00;100541.06;109804;1240;70354;-68
2023/07/31 07:28:22;;;;;;;3.10;2.20;;;;;;;18.35;100.00;100541.20;109707;1241;74107;-69
2023/07/31 07:30:54;;;;;;;4.70;2.20;;;;;;;18.32;100.00;100543.54;109831;1241;63947;-69
2023/07/31 07:33:23;;;;;;;4.30;2.30;;;;;;;18.29;100.00;100542.28;109917;1240;60596;-69
2023/07/31 07:35:51;;;;;;;4.10;2.80;;;;;;;18.28;100.00;100544.20;109891;1241;74778;-69
2023/07/31 07:38:20;;;;;;;4.80;2.40;;;;;;;18.30;100.00;100550.11;109850;1239;61248;-69
2023/07/31 07:40:52;;;;;;;4.90;2.60;;;;;;;18.31;100.00;100552.52;109758;1240;60007;-68
2023/07/31 07:43:21;;;;;;;4.20;2.30;;;;;;;18.29;100.00;100557.33;109593;1240;64618;-68
2023/07/31 07:45:50;;;;;;;3.90;2.50;;;;;;;18.28;100.00;100558.48;109756;1241;58237;-69
2023/07/31 07:48:19;;;;;;;3.80;2.60;;;;;;;18.29;100.00;100561.85;109893;1240;60200;-70
2023/07/31 07:50:49;;;;;;;5.30;2.80;;;;;;;18.31;100.00;100561.84;109824;1241;64312;-69
2023/07/31 07:53:18;;;;;;;3.70;2.90;;;;;;;18.34;100.00;100565.42;109840;1241;71533;-74
2023/07/31 07:55:46;;;;;;;4.50;2.70;;;;;;;18.41;100.00;100562.81;109835;1241;70086;-69
2023/07/31 07:58:15;;;;;;;4.70;3.10;;;;;;;18.42;100.00;100565.42;109554;1241;320774;-69
2023/07/31 08:00:50;;;;;;;4.60;2.60;;;;;;;18.49;100.00;100567.31;109740;1241;57801;-69
2023/07/31 08:03:19;;;;;;;4.90;2.90;;;;;;;18.60;100.00;100567.04;109812;1240;61206;-69
2023/07/31 08:05:48;;;;;;;4.70;3.30;;;;;;;18.57;100.00;100567.98;109831;1241;64711;-70
2023/07/31 08:08:18;;;;;;;5.80;3.80;;;;;;;18.50;100.00;100568.95;109781;1242;61631;-69
2023/07/31 08:10:46;;;;;;;5.40;3.80;;;;;;;18.37;100.00;100570.71;109765;1239;70671;-68
2023/07/31 08:13:15;;;;;;;7.00;4.30;;;;;;;18.38;100.00;100570.08;109764;1241;63177;-69
2023/07/31 08:15:44;;;;;;;7.40;4.20;;;;;;;18.51;100.00;100573.42;109738;1241;61826;-68
2023/07/31 08:18:13;;;;;;;5.50;3.60;;;;;;;18.61;100.00;100578.02;109828;1241;60741;-68
2023/07/31 08:20:41;;;;;;;6.80;4.30;;;;;;;18.66;100.00;100576.94;109738;1239;73173;-68
2023/07/31 08:23:10;;;;;;;6.20;4.50;;;;;;;18.60;100.00;100577.39;109888;1240;62300;-68
2023/07/31 08:25:40;;;;;;;7.10;3.70;;;;;;;18.63;100.00;100575.48;109841;1241;59780;-69
2023/07/31 08:28:08;;;;;;;6.10;4.20;;;;;;;18.70;100.00;100573.55;109650;1240;73880;-68
2023/07/31 08:30:37;;;;;;;5.70;4.60;;;;;;;18.74;100.00;100573.45;109810;1241;58279;-69
2023/07/31 08:33:06;;;;;;;5.10;4.20;;;;;;;18.82;100.00;100572.36;109847;1241;58166;-69
2023/07/31 08:35:36;;;;;;;7.30;4.80;;;;;;;18.93;100.00;100569.90;109768;1241;63720;-67
2023/07/31 08:38:04;;;;;;;6.50;5.90;;;;;;;19.00;100.00;100572.73;109796;1240;71513;-68
2023/07/31 08:40:38;;;;;;;5.30;3.60;;;;;;;19.08;100.00;100575.77;109821;1240;60340;-69
2023/07/31 08:43:07;;;;;;;6.10;3.50;;;;;;;19.10;100.00;100581.65;109815;1241;72945;-68
2023/07/31 08:45:37;;;;;;;4.50;3.40;;;;;;;19.12;100.00;100582.67;109814;1242;58735;-68
2023/07/31 08:48:05;;;;;;;4.20;3.30;;;;;;;19.04;100.00;100579.15;109879;1240;60283;-68
2023/07/31 08:50:35;;;;;;;6.30;4.00;;;;;;;19.07;100.00;100582.85;109762;1241;64650;-69
2023/07/31 08:53:04;;;;;;;4.00;3.10;;;;;;;19.10;100.00;100584.30;109653;1240;62351;-69
2023/07/31 08:55:33;;;;;;;6.50;3.90;;;;;;;19.08;100.00;100584.14;109818;1240;67994;-68
2023/07/31 08:58:04;;;;;;;4.60;3.30;;;;;;;19.12;100.00;100586.23;109530;1240;63372;-69
2023/07/31 09:00:33;;;;;;;4.50;3.40;;;;;;;19.18;100.00;100584.84;109795;1241;62075;-69
2023/07/31 09:03:17;;;;;;;4.60;3.40;;;;;;;19.25;100.00;100585.81;109750;1241;61436;-69
2023/07/31 09:05:47;;;;;;;7.10;4.30;;;;;;;19.44;100.00;100583.73;109652;1240;73609;-69
2023/07/31 09:08:20;;;;;;;5.40;4.40;;;;;;;19.37;100.00;100583.98;109701;1241;71499;-69
2023/07/31 09:10:49;;;;;;;5.10;3.60;;;;;;;19.40;100.00;100585.40;109731;1240;70679;-70
2023/07/31 09:13:18;;;;;;;4.60;3.50;;;;;;;19.46;100.00;100584.19;109642;1241;64859;-71
2023/07/31 09:15:47;;;;;;;8.00;4.40;;;;;;;19.48;100.00;100583.18;109753;1241;58347;-70
2023/07/31 09:18:19;;;;;;;6.30;4.70;;;;;;;19.46;100.00;100580.45;109847;1241;57717;-70
2023/07/31 09:21:03;;;;;;;7.40;4.10;;;;;;;19.59;100.00;100583.78;109725;1240;75219;-71
2023/07/31 09:23:47;;;;;;;5.20;4.10;;;;;;;19.80;100.00;100579.48;109813;1241;60776;-71
2023/07/31 09:26:36;;;;;;;5.70;3.90;;;;;;;19.85;100.00;100581.69;109740;1239;60350;-69
2023/07/31 09:29:18;;;;;;;7.30;4.50;;;;;;;19.78;100.00;100577.98;109705;1241;71710;-70
2023/07/31 09:31:47;;;;;;;5.80;4.60;;;;;;;19.74;100.00;100579.81;109843;1241;63461;-70
2023/07/31 09:34:16;;;;;;;6.50;4.90;;;;;;;19.84;100.00;100576.42;109884;1239;61734;-69
2023/07/31 09:36:50;;;;;;;6.60;4.60;;;;;;;20.00;100.00;100577.98;109902;1241;75326;-70
2023/07/31 09:39:22;;;;;;;5.10;4.20;;;;;;;20.11;100.00;100571.31;109714;1243;62148;-69
2023/07/31 09:41:55;;;;;;;6.90;4.40;;;;;;;20.12;100.00;100565.05;109857;1240;59144;-70
2023/07/31 09:44:41;;;;;;;6.00;4.40;;;;;;;20.22;100.00;100562.34;109698;1241;73857;-70
2023/07/31 09:47:24;;;;;;;4.80;3.70;;;;;;;20.54;100.00;100564.91;109745;1242;57746;-69
2023/07/31 09:49:53;;;;;;;6.90;4.00;;;;;;;20.62;100.00;100562.98;109730;1239;60342;-70
2023/07/31 09:52:25;;;;;;;6.00;4.10;;;;;;;20.53;100.00;100564.52;109827;1241;74070;-70
2023/07/31 09:54:54;;;;;;;5.50;3.70;;;;;;;20.59;100.00;100568.27;109851;1241;72298;-70
2023/07/31 09:57:25;;;;;;;6.00;4.20;;;;;;;20.67;100.00;100563.85;109776;1240;70051;-70
2023/07/31 09:59:55;;;;;;;4.80;4.00;;;;;;;20.58;100.00;100560.08;109753;1241;63565;-69
2023/07/31 10:02:24;;;;;;;7.80;4.30;;;;;;;20.71;100.00;100552.92;109703;1241;61833;-69
2023/07/31 10:04:58;;;;;;;7.00;4.40;;;;;;;20.66;100.00;100551.34;109707;1244;58187;-70
2023/07/31 10:07:30;;;;;;;5.40;3.30;;;;;;;21.06;100.00;100555.98;109676;1241;73507;-70
2023/07/31 10:10:00;;;;;;;4.50;3.10;;;;;;;21.16;100.00;100555.91;109711;1240;71238;-70
2023/07/31 10:12:34;;;;;;;3.50;2.90;;;;;;;21.49;100.00;100557.27;109760;1241;70438;-71
2023/07/31 10:15:04;;;;;;;6.00;3.80;;;;;;;21.51;100.00;100554.35;109682;1241;71897;-72
2023/07/31 10:17:35;;;;;;;4.50;3.10;;;;;;;21.41;100.00;100550.41;109423;1239;62192;-70
2023/07/31 10:20:06;;;;;;;4.20;2.90;;;;;;;21.69;100.00;100547.73;109633;1240;58291;-69
2023/07/31 10:22:35;;;;;;;4.10;2.80;;;;;;;21.64;100.00;100548.34;109649;1242;63587;-70
2023/07/31 10:25:08;;;;;;;4.20;2.60;;;;;;;21.75;100.00;100544.26;109485;1241;61624;-69
2023/07/31 10:27:38;;;;;;;;;;;;;;;21.78;100.00;100546.79;109680;1241;69665;-69
2023/07/31 10:30:14;;;;;;;7.70;3.30;;;;;;;22.02;100.00;100548.66;109839;1241;74103;-71
2023/07/31 10:32:49;;;;;;;7.70;3.30;;;;;;;21.98;100.00;100551.98;109730;1240;58591;-71
2023/07/31 10:35:22;;;;;;;4.50;2.90;;;;;;;21.92;100.00;100552.78;109751;1241;60204;-74
2023/07/31 10:37:52;;;;;;;4.10;2.80;;;;;;;22.20;100.00;100551.14;109639;1240;73380;-71
2023/07/31 10:40:27;;;;;;;6.70;3.40;;;;;;;22.18;100.00;100550.98;109497;1244;61532;-72
2023/07/31 10:43:00;;;;;;;4.10;2.90;;;;;;;22.06;100.00;100548.60;109444;1245;60248;-72
2023/07/31 10:45:59;;;;;;;4.00;2.60;;;;;;;22.11;100.00;100543.01;109636;1241;63016;-72
2023/07/31 10:48:33;;;;;;;3.60;3.00;;;;;;;22.47;100.00;100539.27;109697;1241;62939;-72
2023/07/31 10:51:09;;;;;;;4.70;2.80;;;;;;;22.59;100.00;100535.11;109696;1241;58226;-72
2023/07/31 10:53:40;;;;;;;4.70;3.00;;;;;;;22.51;100.00;100534.72;109802;1239;74374;-71
2023/07/31 10:56:15;;;;;;;5.10;3.10;;;;;;;22.47;100.00;100530.36;109633;1244;71887;-73
2023/07/31 10:58:46;;;;;;;5.90;3.10;;;;;;;22.36;100.00;100527.86;109439;1240;70269;-73
2023/07/31 11:01:14;;;;;;;5.20;3.10;;;;;;;22.05;100.00;100531.27;109498;1241;74120;-71
2023/07/31 11:03:49;;;;;;;5.30;3.40;;;;;;;22.45;100.00;100528.16;109499;1244;58336;-72
2023/07/31 11:06:19;;;;;;;4.80;3.10;;;;;;;22.50;100.00;100526.64;109564;1240;61062;-73
2023/07/31 11:08:50;;;;;;;4.00;3.20;;;;;;;22.66;100.00;100524.48;109555;1241;73864;-72
2023/07/31 11:11:20;;;;;;;8.60;3.40;;;;;;;22.69;100.00;100520.40;109574;1241;61804;-71
2023/07/31 11:13:52;;;;;;;4.00;3.20;;;;;;;22.68;100.00;100519.61;109543;1242;59084;-70
2023/07/31 11:16:25;;;;;;;6.50;3.60;;;;;;;22.53;100.00;100521.10;109604;1240;63297;-71
2023/07/31 11:18:55;;;;;;;4.50;3.10;;;;;;;22.44;100.00;100521.81;109654;1240;62497;-71
2023/07/31 11:21:25;;;;;;;7.40;3.50;;;;;;;22.60;100.00;100516.66;109581;1241;60984;-73
2023/07/31 11:23:58;;;;;;;5.00;3.20;;;;;;;22.67;100.00;100514.90;109464;1240;75682;-72